Weather at Mariscal Sucre International Airport

Public forecast

Using degrees Celsius for public forecast. Weather courtesy of forecast.io.

Current aviation weather report (METAR) for Mariscal Sucre International Airport

2024/07/23 00:00 (retrieved 10 minutes ago)

SEQM 230000Z 01006KT 9999 FEW030 18/08 Q1024 NOSIG RMK A3024

Closest aviation forecast (TAF) to Mariscal Sucre International Airport

Forecast is more than 6 hours old.

Closest forecast is São Tomé International Airport, 5,107.5 nm (9,459.1 km) E.

2024/07/22 18:00 (retrieved 6 hours ago)

TAF FPST 221600Z 2218/2324 07008KT 9999 FEW023 BKN040 BECMG 2220/2223 SCT020 BKN033